モンロビア の空港の天気 - METARとTAF

モンロビア・ロバーツ国際空港 ( GLRB / ROB ) - リベリア モンロビア
飛行場実況気象(Metar)
観測時間07/20 11:00 GMT (07/20 11:00 UTC)
風向・風速東 4m/s
視程9000m
天気現象弱い雨
全天の4割程度の雲 雲底高度 210m
全天の8割程度の雲 雲底高度 340m
少しの雲 雲底高度 670m
気温24℃
湿度100%
気圧1017hPa
METARGLRB 201100Z 10008KT 9000 -RA SCT007 BKN011 FEW022CB 24/24 Q1017 RMK CB-SW
過去の天気等 Google飛行場航空写真 Wunderground天気予報

過去48時間のMETAR

飛行場予報(TAF)
発表時間: 7/20 04:00 GMT (7/20 04:00 UTC)
予報対象時間: 20日6時 GMT ~ 21日12時 GMT
風向・風速東南東 4m/s
視程7000m
天気現象弱い雷雨
全天の8割程度の雲 雲底高度 270m
少しの積乱雲 雲底高度 670m
20日9時 GMT ~ 20日13時 GMT に一時的に
風向・風速南南西 5m/s
視程10km以上
全天の8割程度の雲 雲底高度 490m
少しの積乱雲 雲底高度 820m
TAF GLRB 200400Z 2006/2112 12008KT 7000 -TSRA BKN009 FEW022CB
BECMG 20026/2008 02004KT 5000
TEMPO 2009/2013 20010KT 9999 BKN016 FEW027CB